sensor_id;sensor_type;location;lat;lon;timestamp;P1;durP1;ratioP1;P2;durP2;ratioP2
19026;SDS011;9646;52.034;5.554;2022-07-06T00:02:02;2.40;;;1.02;;
19026;SDS011;9646;52.034;5.554;2022-07-06T00:04:29;2.22;;;1.13;;
19026;SDS011;9646;52.034;5.554;2022-07-06T00:06:56;1.88;;;0.98;;
19026;SDS011;9646;52.034;5.554;2022-07-06T00:09:23;2.40;;;0.70;;
19026;SDS011;9646;52.034;5.554;2022-07-06T00:11:50;2.25;;;0.80;;
19026;SDS011;9646;52.034;5.554;2022-07-06T00:14:17;2.47;;;1.15;;
19026;SDS011;9646;52.034;5.554;2022-07-06T00:16:46;2.70;;;0.88;;
19026;SDS011;9646;52.034;5.554;2022-07-06T00:19:13;1.65;;;0.73;;
19026;SDS011;9646;52.034;5.554;2022-07-06T00:21:41;2.50;;;0.93;;
19026;SDS011;9646;52.034;5.554;2022-07-06T00:24:08;2.55;;;0.95;;
19026;SDS011;9646;52.034;5.554;2022-07-06T00:26:35;1.90;;;0.80;;
19026;SDS011;9646;52.034;5.554;2022-07-06T00:29:02;2.13;;;0.82;;
19026;SDS011;9646;52.034;5.554;2022-07-06T00:31:29;3.05;;;0.80;;
19026;SDS011;9646;52.034;5.554;2022-07-06T00:33:58;4.00;;;1.10;;
19026;SDS011;9646;52.034;5.554;2022-07-06T00:36:25;3.15;;;1.00;;
19026;SDS011;9646;52.034;5.554;2022-07-06T00:38:52;3.00;;;0.93;;
19026;SDS011;9646;52.034;5.554;2022-07-06T00:41:20;0.73;;;0.70;;
19026;SDS011;9646;52.034;5.554;2022-07-06T00:43:47;3.17;;;0.95;;
19026;SDS011;9646;52.034;5.554;2022-07-06T00:46:14;2.40;;;0.88;;
19026;SDS011;9646;52.034;5.554;2022-07-06T00:48:42;3.88;;;1.05;;
19026;SDS011;9646;52.034;5.554;2022-07-06T00:51:10;2.47;;;0.70;;
19026;SDS011;9646;52.034;5.554;2022-07-06T00:53:37;3.63;;;0.95;;
19026;SDS011;9646;52.034;5.554;2022-07-06T00:56:05;2.63;;;0.70;;
19026;SDS011;9646;52.034;5.554;2022-07-06T00:58:32;2.58;;;0.98;;
19026;SDS011;9646;52.034;5.554;2022-07-06T01:00:59;2.45;;;1.00;;
19026;SDS011;9646;52.034;5.554;2022-07-06T01:03:26;4.88;;;1.00;;
19026;SDS011;9646;52.034;5.554;2022-07-06T01:05:53;1.90;;;0.73;;
19026;SDS011;9646;52.034;5.554;2022-07-06T01:08:21;2.10;;;0.82;;
19026;SDS011;9646;52.034;5.554;2022-07-06T01:10:48;1.55;;;0.77;;
19026;SDS011;9646;52.034;5.554;2022-07-06T01:13:15;3.15;;;1.08;;
19026;SDS011;9646;52.034;5.554;2022-07-06T01:15:43;1.92;;;0.75;;
19026;SDS011;9646;52.034;5.554;2022-07-06T01:18:10;3.45;;;0.95;;
19026;SDS011;9646;52.034;5.554;2022-07-06T01:20:38;2.80;;;0.80;;
19026;SDS011;9646;52.034;5.554;2022-07-06T01:23:05;2.35;;;0.70;;
19026;SDS011;9646;52.034;5.554;2022-07-06T01:25:33;1.67;;;0.75;;
19026;SDS011;9646;52.034;5.554;2022-07-06T01:28:00;1.45;;;0.70;;
19026;SDS011;9646;52.034;5.554;2022-07-06T01:30:27;5.05;;;1.17;;
19026;SDS011;9646;52.034;5.554;2022-07-06T01:32:54;4.00;;;1.02;;
19026;SDS011;9646;52.034;5.554;2022-07-06T01:35:21;3.05;;;1.05;;
19026;SDS011;9646;52.034;5.554;2022-07-06T01:37:50;1.92;;;0.80;;
19026;SDS011;9646;52.034;5.554;2022-07-06T01:40:17;2.58;;;1.20;;
19026;SDS011;9646;52.034;5.554;2022-07-06T01:42:44;2.80;;;0.80;;
19026;SDS011;9646;52.034;5.554;2022-07-06T01:45:11;3.15;;;0.77;;
19026;SDS011;9646;52.034;5.554;2022-07-06T01:47:38;1.45;;;0.80;;
19026;SDS011;9646;52.034;5.554;2022-07-06T01:50:06;4.28;;;0.90;;
19026;SDS011;9646;52.034;5.554;2022-07-06T01:52:33;4.05;;;0.85;;
19026;SDS011;9646;52.034;5.554;2022-07-06T01:55:02;2.38;;;0.90;;
19026;SDS011;9646;52.034;5.554;2022-07-06T01:57:29;2.42;;;1.05;;
19026;SDS011;9646;52.034;5.554;2022-07-06T01:59:56;2.53;;;0.98;;
19026;SDS011;9646;52.034;5.554;2022-07-06T02:02:23;1.48;;;0.60;;
19026;SDS011;9646;52.034;5.554;2022-07-06T02:04:50;1.55;;;0.70;;
19026;SDS011;9646;52.034;5.554;2022-07-06T02:07:17;3.45;;;0.80;;
19026;SDS011;9646;52.034;5.554;2022-07-06T02:09:44;2.63;;;1.27;;
19026;SDS011;9646;52.034;5.554;2022-07-06T02:12:13;2.47;;;0.80;;
19026;SDS011;9646;52.034;5.554;2022-07-06T02:14:40;2.78;;;0.73;;
19026;SDS011;9646;52.034;5.554;2022-07-06T02:17:07;3.10;;;0.85;;
19026;SDS011;9646;52.034;5.554;2022-07-06T02:19:34;1.50;;;0.80;;
19026;SDS011;9646;52.034;5.554;2022-07-06T02:22:01;1.67;;;0.65;;
19026;SDS011;9646;52.034;5.554;2022-07-06T02:24:28;2.53;;;0.82;;
19026;SDS011;9646;52.034;5.554;2022-07-06T02:26:55;2.47;;;0.82;;
19026;SDS011;9646;52.034;5.554;2022-07-06T02:29:23;1.25;;;0.70;;
19026;SDS011;9646;52.034;5.554;2022-07-06T02:31:51;1.45;;;0.90;;
19026;SDS011;9646;52.034;5.554;2022-07-06T02:34:18;2.53;;;0.75;;
19026;SDS011;9646;52.034;5.554;2022-07-06T02:36:45;1.08;;;0.65;;
19026;SDS011;9646;52.034;5.554;2022-07-06T02:39:12;1.48;;;0.63;;
19026;SDS011;9646;52.034;5.554;2022-07-06T02:41:39;2.72;;;0.85;;
19026;SDS011;9646;52.034;5.554;2022-07-06T02:44:06;2.88;;;0.90;;
19026;SDS011;9646;52.034;5.554;2022-07-06T02:46:34;2.55;;;0.82;;
19026;SDS011;9646;52.034;5.554;2022-07-06T02:49:01;3.25;;;0.70;;
19026;SDS011;9646;52.034;5.554;2022-07-06T02:51:29;2.45;;;0.70;;
19026;SDS011;9646;52.034;5.554;2022-07-06T02:53:56;0.98;;;0.50;;
19026;SDS011;9646;52.034;5.554;2022-07-06T02:56:23;1.85;;;0.70;;
19026;SDS011;9646;52.034;5.554;2022-07-06T02:58:50;3.83;;;0.70;;
19026;SDS011;9646;52.034;5.554;2022-07-06T03:01:17;2.10;;;0.88;;
19026;SDS011;9646;52.034;5.554;2022-07-06T03:03:45;1.70;;;0.70;;
19026;SDS011;9646;52.034;5.554;2022-07-06T03:06:12;2.08;;;0.57;;
19026;SDS011;9646;52.034;5.554;2022-07-06T03:08:39;2.63;;;0.80;;
19026;SDS011;9646;52.034;5.554;2022-07-06T03:11:06;2.28;;;0.80;;
19026;SDS011;9646;52.034;5.554;2022-07-06T03:13:34;1.17;;;0.65;;
19026;SDS011;9646;52.034;5.554;2022-07-06T03:16:01;2.90;;;0.60;;
19026;SDS011;9646;52.034;5.554;2022-07-06T03:18:28;1.70;;;0.73;;
19026;SDS011;9646;52.034;5.554;2022-07-06T03:20:56;1.38;;;0.60;;
19026;SDS011;9646;52.034;5.554;2022-07-06T03:23:23;2.15;;;0.80;;
19026;SDS011;9646;52.034;5.554;2022-07-06T03:25:50;1.88;;;0.90;;
19026;SDS011;9646;52.034;5.554;2022-07-06T03:28:17;1.92;;;0.80;;
19026;SDS011;9646;52.034;5.554;2022-07-06T03:30:44;1.77;;;0.75;;
19026;SDS011;9646;52.034;5.554;2022-07-06T03:33:11;3.33;;;0.90;;
19026;SDS011;9646;52.034;5.554;2022-07-06T03:35:38;4.05;;;0.70;;
19026;SDS011;9646;52.034;5.554;2022-07-06T03:38:07;2.40;;;0.90;;
19026;SDS011;9646;52.034;5.554;2022-07-06T03:40:34;3.20;;;1.05;;
19026;SDS011;9646;52.034;5.554;2022-07-06T03:43:01;1.50;;;0.60;;
19026;SDS011;9646;52.034;5.554;2022-07-06T03:45:28;1.63;;;0.65;;
19026;SDS011;9646;52.034;5.554;2022-07-06T03:47:55;1.27;;;0.60;;
19026;SDS011;9646;52.034;5.554;2022-07-06T03:50:22;2.67;;;0.98;;
19026;SDS011;9646;52.034;5.554;2022-07-06T03:52:50;4.55;;;0.90;;
19026;SDS011;9646;52.034;5.554;2022-07-06T03:55:18;2.22;;;0.82;;
19026;SDS011;9646;52.034;5.554;2022-07-06T03:57:45;2.67;;;0.80;;
19026;SDS011;9646;52.034;5.554;2022-07-06T04:00:12;3.30;;;1.13;;
19026;SDS011;9646;52.034;5.554;2022-07-06T04:02:40;1.65;;;0.77;;
19026;SDS011;9646;52.034;5.554;2022-07-06T04:05:07;2.63;;;0.95;;
19026;SDS011;9646;52.034;5.554;2022-07-06T04:07:34;1.05;;;0.68;;
19026;SDS011;9646;52.034;5.554;2022-07-06T04:10:02;1.65;;;0.70;;
19026;SDS011;9646;52.034;5.554;2022-07-06T04:12:30;2.28;;;0.60;;
19026;SDS011;9646;52.034;5.554;2022-07-06T04:14:57;4.47;;;1.02;;
19026;SDS011;9646;52.034;5.554;2022-07-06T04:17:24;3.13;;;0.57;;
19026;SDS011;9646;52.034;5.554;2022-07-06T04:20:09;1.60;;;0.80;;
19026;SDS011;9646;52.034;5.554;2022-07-06T04:22:37;2.67;;;0.80;;
19026;SDS011;9646;52.034;5.554;2022-07-06T04:25:04;3.50;;;0.70;;
19026;SDS011;9646;52.034;5.554;2022-07-06T04:27:33;3.40;;;0.80;;
19026;SDS011;9646;52.034;5.554;2022-07-06T04:30:00;0.85;;;0.52;;
19026;SDS011;9646;52.034;5.554;2022-07-06T04:32:27;1.92;;;0.80;;
19026;SDS011;9646;52.034;5.554;2022-07-06T04:34:54;4.47;;;0.85;;
19026;SDS011;9646;52.034;5.554;2022-07-06T04:37:21;4.03;;;0.73;;
19026;SDS011;9646;52.034;5.554;2022-07-06T04:39:48;2.13;;;0.73;;
19026;SDS011;9646;52.034;5.554;2022-07-06T04:42:15;3.63;;;0.88;;
19026;SDS011;9646;52.034;5.554;2022-07-06T04:44:44;1.75;;;0.65;;
19026;SDS011;9646;52.034;5.554;2022-07-06T04:47:11;1.60;;;0.70;;
19026;SDS011;9646;52.034;5.554;2022-07-06T04:49:38;3.17;;;0.60;;
19026;SDS011;9646;52.034;5.554;2022-07-06T04:52:05;2.42;;;0.68;;
19026;SDS011;9646;52.034;5.554;2022-07-06T04:54:32;3.78;;;0.70;;
19026;SDS011;9646;52.034;5.554;2022-07-06T04:56:59;1.48;;;0.68;;
19026;SDS011;9646;52.034;5.554;2022-07-06T04:59:26;3.63;;;0.75;;
19026;SDS011;9646;52.034;5.554;2022-07-06T05:01:55;5.15;;;0.85;;
19026;SDS011;9646;52.034;5.554;2022-07-06T05:04:22;3.40;;;0.80;;
19026;SDS011;9646;52.034;5.554;2022-07-06T05:06:49;1.20;;;0.63;;
19026;SDS011;9646;52.034;5.554;2022-07-06T05:09:16;1.88;;;0.80;;
19026;SDS011;9646;52.034;5.554;2022-07-06T05:11:43;2.42;;;0.77;;
19026;SDS011;9646;52.034;5.554;2022-07-06T05:14:10;1.27;;;0.70;;
19026;SDS011;9646;52.034;5.554;2022-07-06T05:16:37;3.20;;;0.80;;
19026;SDS011;9646;52.034;5.554;2022-07-06T05:19:06;1.90;;;0.70;;
19026;SDS011;9646;52.034;5.554;2022-07-06T05:21:33;2.85;;;0.80;;
19026;SDS011;9646;52.034;5.554;2022-07-06T05:24:00;2.55;;;0.60;;
19026;SDS011;9646;52.034;5.554;2022-07-06T05:26:27;3.97;;;1.17;;
19026;SDS011;9646;52.034;5.554;2022-07-06T05:28:54;2.20;;;0.70;;
19026;SDS011;9646;52.034;5.554;2022-07-06T05:31:21;2.25;;;0.90;;
19026;SDS011;9646;52.034;5.554;2022-07-06T05:33:48;2.97;;;0.45;;
19026;SDS011;9646;52.034;5.554;2022-07-06T05:36:16;1.90;;;0.60;;
19026;SDS011;9646;52.034;5.554;2022-07-06T05:38:44;2.08;;;0.75;;
19026;SDS011;9646;52.034;5.554;2022-07-06T05:41:11;2.50;;;0.70;;
19026;SDS011;9646;52.034;5.554;2022-07-06T05:43:38;1.15;;;0.73;;
19026;SDS011;9646;52.034;5.554;2022-07-06T05:46:05;3.55;;;0.68;;
19026;SDS011;9646;52.034;5.554;2022-07-06T05:48:32;3.75;;;0.60;;
19026;SDS011;9646;52.034;5.554;2022-07-06T05:51:18;2.35;;;0.70;;
19026;SDS011;9646;52.034;5.554;2022-07-06T05:53:45;2.72;;;0.70;;
19026;SDS011;9646;52.034;5.554;2022-07-06T05:56:12;1.45;;;0.60;;
19026;SDS011;9646;52.034;5.554;2022-07-06T05:58:39;2.13;;;0.80;;
19026;SDS011;9646;52.034;5.554;2022-07-06T06:01:07;4.00;;;0.80;;
19026;SDS011;9646;52.034;5.554;2022-07-06T06:03:34;1.98;;;0.80;;
19026;SDS011;9646;52.034;5.554;2022-07-06T06:06:01;1.25;;;0.60;;
19026;SDS011;9646;52.034;5.554;2022-07-06T06:08:30;1.05;;;0.68;;
19026;SDS011;9646;52.034;5.554;2022-07-06T06:10:57;2.60;;;0.93;;
19026;SDS011;9646;52.034;5.554;2022-07-06T06:13:24;2.83;;;0.68;;
19026;SDS011;9646;52.034;5.554;2022-07-06T06:15:51;3.63;;;0.90;;
19026;SDS011;9646;52.034;5.554;2022-07-06T06:18:18;3.55;;;0.90;;
19026;SDS011;9646;52.034;5.554;2022-07-06T06:20:45;3.67;;;0.68;;
19026;SDS011;9646;52.034;5.554;2022-07-06T06:23:12;2.33;;;0.90;;
19026;SDS011;9646;52.034;5.554;2022-07-06T06:25:41;1.33;;;0.52;;
19026;SDS011;9646;52.034;5.554;2022-07-06T06:28:08;2.45;;;0.70;;
19026;SDS011;9646;52.034;5.554;2022-07-06T06:30:36;2.65;;;0.90;;
19026;SDS011;9646;52.034;5.554;2022-07-06T06:33:05;6.32;;;1.00;;
19026;SDS011;9646;52.034;5.554;2022-07-06T06:35:32;2.45;;;0.80;;
19026;SDS011;9646;52.034;5.554;2022-07-06T06:37:59;3.50;;;1.02;;
19026;SDS011;9646;52.034;5.554;2022-07-06T06:40:27;2.20;;;0.70;;
19026;SDS011;9646;52.034;5.554;2022-07-06T06:42:56;3.80;;;0.80;;
19026;SDS011;9646;52.034;5.554;2022-07-06T06:45:23;3.05;;;0.85;;
19026;SDS011;9646;52.034;5.554;2022-07-06T06:47:50;2.83;;;0.82;;
19026;SDS011;9646;52.034;5.554;2022-07-06T06:50:17;3.40;;;1.00;;
19026;SDS011;9646;52.034;5.554;2022-07-06T06:52:44;4.82;;;0.90;;
19026;SDS011;9646;52.034;5.554;2022-07-06T06:55:11;3.65;;;1.20;;
19026;SDS011;9646;52.034;5.554;2022-07-06T06:57:38;3.53;;;0.90;;
19026;SDS011;9646;52.034;5.554;2022-07-06T07:00:07;4.03;;;1.00;;
19026;SDS011;9646;52.034;5.554;2022-07-06T07:02:34;3.90;;;1.10;;
19026;SDS011;9646;52.034;5.554;2022-07-06T07:05:01;4.63;;;0.98;;
19026;SDS011;9646;52.034;5.554;2022-07-06T07:07:28;3.35;;;0.80;;
19026;SDS011;9646;52.034;5.554;2022-07-06T07:09:55;2.83;;;0.80;;
19026;SDS011;9646;52.034;5.554;2022-07-06T07:12:22;4.47;;;1.27;;
19026;SDS011;9646;52.034;5.554;2022-07-06T07:14:49;4.38;;;1.05;;
19026;SDS011;9646;52.034;5.554;2022-07-06T07:17:18;3.70;;;1.25;;
19026;SDS011;9646;52.034;5.554;2022-07-06T07:19:45;2.58;;;0.80;;
19026;SDS011;9646;52.034;5.554;2022-07-06T07:22:12;3.25;;;0.95;;
19026;SDS011;9646;52.034;5.554;2022-07-06T07:24:39;4.32;;;0.98;;
19026;SDS011;9646;52.034;5.554;2022-07-06T07:27:06;2.38;;;0.77;;
19026;SDS011;9646;52.034;5.554;2022-07-06T07:29:33;2.80;;;1.30;;
19026;SDS011;9646;52.034;5.554;2022-07-06T07:32:00;3.70;;;0.90;;
19026;SDS011;9646;52.034;5.554;2022-07-06T07:34:28;2.30;;;0.55;;
19026;SDS011;9646;52.034;5.554;2022-07-06T07:36:55;3.17;;;0.80;;
19026;SDS011;9646;52.034;5.554;2022-07-06T07:39:23;4.20;;;1.15;;
19026;SDS011;9646;52.034;5.554;2022-07-06T07:41:50;4.68;;;1.02;;
19026;SDS011;9646;52.034;5.554;2022-07-06T07:44:17;3.42;;;0.98;;
19026;SDS011;9646;52.034;5.554;2022-07-06T07:46:44;2.58;;;0.80;;
19026;SDS011;9646;52.034;5.554;2022-07-06T07:49:11;3.22;;;1.10;;
19026;SDS011;9646;52.034;5.554;2022-07-06T07:51:39;1.65;;;0.60;;
19026;SDS011;9646;52.034;5.554;2022-07-06T07:54:07;1.77;;;0.70;;
19026;SDS011;9646;52.034;5.554;2022-07-06T07:56:34;2.03;;;0.68;;
19026;SDS011;9646;52.034;5.554;2022-07-06T07:59:01;4.15;;;0.82;;
19026;SDS011;9646;52.034;5.554;2022-07-06T08:01:28;1.63;;;0.70;;
19026;SDS011;9646;52.034;5.554;2022-07-06T08:03:55;3.70;;;1.00;;
19026;SDS011;9646;52.034;5.554;2022-07-06T08:06:22;1.75;;;0.70;;
19026;SDS011;9646;52.034;5.554;2022-07-06T08:08:51;3.03;;;0.68;;
19026;SDS011;9646;52.034;5.554;2022-07-06T08:11:18;1.83;;;0.68;;
19026;SDS011;9646;52.034;5.554;2022-07-06T08:13:45;2.20;;;0.52;;
19026;SDS011;9646;52.034;5.554;2022-07-06T08:16:12;3.13;;;0.60;;
19026;SDS011;9646;52.034;5.554;2022-07-06T08:18:39;3.85;;;1.10;;
19026;SDS011;9646;52.034;5.554;2022-07-06T08:21:07;3.58;;;1.25;;
19026;SDS011;9646;52.034;5.554;2022-07-06T08:23:34;5.65;;;1.73;;
19026;SDS011;9646;52.034;5.554;2022-07-06T08:26:02;17.02;;;4.50;;
19026;SDS011;9646;52.034;5.554;2022-07-06T08:28:29;4.50;;;2.13;;
19026;SDS011;9646;52.034;5.554;2022-07-06T08:30:56;5.60;;;2.38;;
19026;SDS011;9646;52.034;5.554;2022-07-06T08:33:23;8.88;;;2.70;;
19026;SDS011;9646;52.034;5.554;2022-07-06T08:35:51;4.50;;;1.42;;
19026;SDS011;9646;52.034;5.554;2022-07-06T08:38:18;13.60;;;4.50;;
19026;SDS011;9646;52.034;5.554;2022-07-06T08:40:46;4.22;;;2.15;;
19026;SDS011;9646;52.034;5.554;2022-07-06T08:43:15;6.70;;;2.72;;
19026;SDS011;9646;52.034;5.554;2022-07-06T08:45:42;12.38;;;3.80;;
19026;SDS011;9646;52.034;5.554;2022-07-06T08:48:10;12.40;;;4.63;;
19026;SDS011;9646;52.034;5.554;2022-07-06T08:50:37;6.28;;;2.58;;
19026;SDS011;9646;52.034;5.554;2022-07-06T08:53:05;7.63;;;2.30;;
19026;SDS011;9646;52.034;5.554;2022-07-06T08:55:32;5.43;;;1.85;;
19026;SDS011;9646;52.034;5.554;2022-07-06T08:57:59;2.35;;;0.68;;
19026;SDS011;9646;52.034;5.554;2022-07-06T09:00:28;3.75;;;0.80;;
19026;SDS011;9646;52.034;5.554;2022-07-06T09:02:55;3.42;;;1.20;;
19026;SDS011;9646;52.034;5.554;2022-07-06T09:05:23;3.13;;;1.00;;
19026;SDS011;9646;52.034;5.554;2022-07-06T09:07:51;6.10;;;2.15;;
19026;SDS011;9646;52.034;5.554;2022-07-06T09:10:19;9.35;;;2.47;;
19026;SDS011;9646;52.034;5.554;2022-07-06T09:12:46;14.32;;;4.43;;
19026;SDS011;9646;52.034;5.554;2022-07-06T09:15:13;3.88;;;0.85;;
19026;SDS011;9646;52.034;5.554;2022-07-06T09:17:42;4.57;;;1.63;;
19026;SDS011;9646;52.034;5.554;2022-07-06T09:20:10;4.72;;;1.85;;
19026;SDS011;9646;52.034;5.554;2022-07-06T09:22:37;2.38;;;1.10;;
19026;SDS011;9646;52.034;5.554;2022-07-06T09:25:05;4.38;;;1.75;;
19026;SDS011;9646;52.034;5.554;2022-07-06T09:27:36;4.20;;;1.45;;
19026;SDS011;9646;52.034;5.554;2022-07-06T09:30:04;2.90;;;1.00;;
19026;SDS011;9646;52.034;5.554;2022-07-06T09:32:32;3.28;;;1.20;;
19026;SDS011;9646;52.034;5.554;2022-07-06T09:35:06;2.85;;;1.02;;
19026;SDS011;9646;52.034;5.554;2022-07-06T09:37:33;4.32;;;1.35;;
19026;SDS011;9646;52.034;5.554;2022-07-06T09:40:00;2.60;;;0.98;;
19026;SDS011;9646;52.034;5.554;2022-07-06T09:42:27;5.13;;;0.77;;
19026;SDS011;9646;52.034;5.554;2022-07-06T09:44:55;4.18;;;1.00;;
19026;SDS011;9646;52.034;5.554;2022-07-06T09:47:22;0.90;;;0.63;;
19026;SDS011;9646;52.034;5.554;2022-07-06T09:49:49;3.17;;;0.77;;
19026;SDS011;9646;52.034;5.554;2022-07-06T09:52:17;5.20;;;0.80;;
19026;SDS011;9646;52.034;5.554;2022-07-06T09:54:48;2.42;;;0.88;;
19026;SDS011;9646;52.034;5.554;2022-07-06T09:57:15;6.47;;;2.00;;
19026;SDS011;9646;52.034;5.554;2022-07-06T09:59:43;5.15;;;1.08;;
19026;SDS011;9646;52.034;5.554;2022-07-06T10:02:16;1.92;;;0.80;;
19026;SDS011;9646;52.034;5.554;2022-07-06T10:04:44;4.03;;;0.93;;
19026;SDS011;9646;52.034;5.554;2022-07-06T10:07:12;1.02;;;0.50;;
19026;SDS011;9646;52.034;5.554;2022-07-06T10:09:41;2.83;;;0.90;;
19026;SDS011;9646;52.034;5.554;2022-07-06T10:12:09;2.72;;;0.90;;
19026;SDS011;9646;52.034;5.554;2022-07-06T10:14:36;3.92;;;1.15;;
19026;SDS011;9646;52.034;5.554;2022-07-06T10:17:04;3.83;;;0.60;;
19026;SDS011;9646;52.034;5.554;2022-07-06T10:19:32;3.33;;;0.98;;
19026;SDS011;9646;52.034;5.554;2022-07-06T10:21:59;1.60;;;0.65;;
19026;SDS011;9646;52.034;5.554;2022-07-06T10:24:27;3.22;;;0.82;;
19026;SDS011;9646;52.034;5.554;2022-07-06T10:26:56;1.95;;;0.57;;
19026;SDS011;9646;52.034;5.554;2022-07-06T10:29:24;3.40;;;0.88;;
19026;SDS011;9646;52.034;5.554;2022-07-06T10:31:53;1.50;;;0.60;;
19026;SDS011;9646;52.034;5.554;2022-07-06T10:34:20;4.00;;;0.90;;
19026;SDS011;9646;52.034;5.554;2022-07-06T10:36:48;2.85;;;0.60;;
19026;SDS011;9646;52.034;5.554;2022-07-06T10:39:15;2.85;;;0.85;;
19026;SDS011;9646;52.034;5.554;2022-07-06T10:42:01;2.88;;;0.68;;
19026;SDS011;9646;52.034;5.554;2022-07-06T10:44:28;3.50;;;0.90;;
19026;SDS011;9646;52.034;5.554;2022-07-06T10:46:56;1.58;;;0.52;;
19026;SDS011;9646;52.034;5.554;2022-07-06T10:49:23;2.70;;;0.90;;
19026;SDS011;9646;52.034;5.554;2022-07-06T10:51:51;3.58;;;0.55;;
19026;SDS011;9646;52.034;5.554;2022-07-06T10:54:19;2.58;;;0.60;;
19026;SDS011;9646;52.034;5.554;2022-07-06T10:56:47;2.42;;;0.70;;
19026;SDS011;9646;52.034;5.554;2022-07-06T10:59:17;1.83;;;0.50;;
19026;SDS011;9646;52.034;5.554;2022-07-06T11:04:30;4.97;;;0.70;;
19026;SDS011;9646;52.034;5.554;2022-07-06T11:07:02;2.58;;;0.70;;
19026;SDS011;9646;52.034;5.554;2022-07-06T11:09:33;0.88;;;0.45;;
19026;SDS011;9646;52.034;5.554;2022-07-06T11:12:11;1.17;;;0.55;;
19026;SDS011;9646;52.034;5.554;2022-07-06T11:14:40;3.15;;;0.80;;
19026;SDS011;9646;52.034;5.554;2022-07-06T11:17:08;1.33;;;0.68;;
19026;SDS011;9646;52.034;5.554;2022-07-06T11:19:36;1.45;;;0.50;;
19026;SDS011;9646;52.034;5.554;2022-07-06T11:22:07;4.43;;;0.68;;
19026;SDS011;9646;52.034;5.554;2022-07-06T11:24:35;2.80;;;0.75;;
19026;SDS011;9646;52.034;5.554;2022-07-06T11:27:02;1.55;;;0.70;;
19026;SDS011;9646;52.034;5.554;2022-07-06T11:29:32;3.60;;;0.70;;
19026;SDS011;9646;52.034;5.554;2022-07-06T11:32:01;4.05;;;0.65;;
19026;SDS011;9646;52.034;5.554;2022-07-06T11:34:29;0.93;;;0.57;;
19026;SDS011;9646;52.034;5.554;2022-07-06T11:36:57;0.98;;;0.40;;
19026;SDS011;9646;52.034;5.554;2022-07-06T11:39:26;1.90;;;0.50;;
19026;SDS011;9646;52.034;5.554;2022-07-06T11:41:53;1.90;;;0.40;;
19026;SDS011;9646;52.034;5.554;2022-07-06T11:44:21;2.70;;;0.38;;
19026;SDS011;9646;52.034;5.554;2022-07-06T11:46:48;3.60;;;0.70;;
19026;SDS011;9646;52.034;5.554;2022-07-06T11:49:17;2.17;;;0.47;;
19026;SDS011;9646;52.034;5.554;2022-07-06T11:51:45;0.90;;;0.40;;
19026;SDS011;9646;52.034;5.554;2022-07-06T11:54:12;2.17;;;0.43;;
19026;SDS011;9646;52.034;5.554;2022-07-06T11:56:45;1.60;;;0.50;;
19026;SDS011;9646;52.034;5.554;2022-07-06T11:59:12;1.15;;;0.35;;
19026;SDS011;9646;52.034;5.554;2022-07-06T12:01:40;1.90;;;0.38;;
19026;SDS011;9646;52.034;5.554;2022-07-06T12:04:09;10.43;;;0.63;;
19026;SDS011;9646;52.034;5.554;2022-07-06T12:06:38;1.83;;;0.52;;
19026;SDS011;9646;52.034;5.554;2022-07-06T12:09:05;2.25;;;0.60;;
19026;SDS011;9646;52.034;5.554;2022-07-06T12:11:33;0.70;;;0.30;;
19026;SDS011;9646;52.034;5.554;2022-07-06T12:14:01;1.35;;;0.50;;
19026;SDS011;9646;52.034;5.554;2022-07-06T12:16:29;2.45;;;0.60;;
19026;SDS011;9646;52.034;5.554;2022-07-06T12:18:56;1.42;;;0.40;;
19026;SDS011;9646;52.034;5.554;2022-07-06T12:21:23;1.90;;;0.40;;
19026;SDS011;9646;52.034;5.554;2022-07-06T12:23:52;2.58;;;0.40;;
19026;SDS011;9646;52.034;5.554;2022-07-06T12:26:20;1.55;;;0.40;;
19026;SDS011;9646;52.034;5.554;2022-07-06T12:28:58;2.90;;;0.57;;
19026;SDS011;9646;52.034;5.554;2022-07-06T12:31:33;1.77;;;0.60;;
19026;SDS011;9646;52.034;5.554;2022-07-06T12:34:00;3.00;;;0.50;;
19026;SDS011;9646;52.034;5.554;2022-07-06T12:36:27;2.13;;;0.55;;
19026;SDS011;9646;52.034;5.554;2022-07-06T12:38:56;2.72;;;0.50;;
19026;SDS011;9646;52.034;5.554;2022-07-06T12:41:26;1.45;;;0.57;;
19026;SDS011;9646;52.034;5.554;2022-07-06T12:44:03;0.60;;;0.40;;
19026;SDS011;9646;52.034;5.554;2022-07-06T12:46:31;2.75;;;0.50;;
19026;SDS011;9646;52.034;5.554;2022-07-06T12:49:01;2.30;;;0.52;;
19026;SDS011;9646;52.034;5.554;2022-07-06T12:51:28;0.75;;;0.50;;
19026;SDS011;9646;52.034;5.554;2022-07-06T12:54:15;1.65;;;0.50;;
19026;SDS011;9646;52.034;5.554;2022-07-06T12:57:01;1.75;;;0.50;;
19026;SDS011;9646;52.034;5.554;2022-07-06T12:59:29;1.17;;;0.52;;
19026;SDS011;9646;52.034;5.554;2022-07-06T13:01:57;2.20;;;0.55;;
19026;SDS011;9646;52.034;5.554;2022-07-06T13:04:24;1.30;;;0.55;;
19026;SDS011;9646;52.034;5.554;2022-07-06T13:06:52;1.90;;;0.50;;
19026;SDS011;9646;52.034;5.554;2022-07-06T13:09:20;3.05;;;0.77;;
19026;SDS011;9646;52.034;5.554;2022-07-06T13:11:48;1.83;;;0.70;;
19026;SDS011;9646;52.034;5.554;2022-07-06T13:14:15;1.73;;;0.70;;
19026;SDS011;9646;52.034;5.554;2022-07-06T13:16:43;1.30;;;0.80;;
19026;SDS011;9646;52.034;5.554;2022-07-06T13:19:10;2.65;;;0.80;;
19026;SDS011;9646;52.034;5.554;2022-07-06T13:21:37;1.00;;;0.50;;
19026;SDS011;9646;52.034;5.554;2022-07-06T13:24:04;1.45;;;0.50;;
19026;SDS011;9646;52.034;5.554;2022-07-06T13:26:33;1.17;;;0.40;;
19026;SDS011;9646;52.034;5.554;2022-07-06T13:29:00;1.98;;;0.50;;
19026;SDS011;9646;52.034;5.554;2022-07-06T13:31:27;2.78;;;0.70;;
19026;SDS011;9646;52.034;5.554;2022-07-06T13:33:54;1.73;;;0.52;;
19026;SDS011;9646;52.034;5.554;2022-07-06T13:36:21;1.20;;;0.60;;
19026;SDS011;9646;52.034;5.554;2022-07-06T13:38:49;0.80;;;0.40;;
19026;SDS011;9646;52.034;5.554;2022-07-06T13:41:16;0.77;;;0.50;;
19026;SDS011;9646;52.034;5.554;2022-07-06T13:43:45;3.28;;;0.80;;
19026;SDS011;9646;52.034;5.554;2022-07-06T13:46:12;1.52;;;0.60;;
19026;SDS011;9646;52.034;5.554;2022-07-06T13:48:40;2.00;;;0.70;;
19026;SDS011;9646;52.034;5.554;2022-07-06T13:51:07;2.53;;;0.73;;
19026;SDS011;9646;52.034;5.554;2022-07-06T13:53:34;1.65;;;0.60;;
19026;SDS011;9646;52.034;5.554;2022-07-06T13:56:02;1.77;;;0.50;;
19026;SDS011;9646;52.034;5.554;2022-07-06T13:58:29;2.08;;;0.63;;
19026;SDS011;9646;52.034;5.554;2022-07-06T14:00:57;1.45;;;0.63;;
19026;SDS011;9646;52.034;5.554;2022-07-06T14:03:24;4.57;;;0.88;;
19026;SDS011;9646;52.034;5.554;2022-07-06T14:05:55;1.95;;;0.90;;
19026;SDS011;9646;52.034;5.554;2022-07-06T14:08:22;1.35;;;0.60;;
19026;SDS011;9646;52.034;5.554;2022-07-06T14:10:49;1.58;;;0.65;;
19026;SDS011;9646;52.034;5.554;2022-07-06T14:13:17;2.00;;;0.75;;
19026;SDS011;9646;52.034;5.554;2022-07-06T14:15:44;3.72;;;0.63;;
19026;SDS011;9646;52.034;5.554;2022-07-06T14:18:12;1.65;;;0.70;;
19026;SDS011;9646;52.034;5.554;2022-07-06T14:20:39;1.25;;;0.65;;
19026;SDS011;9646;52.034;5.554;2022-07-06T14:23:06;2.25;;;0.90;;
19026;SDS011;9646;52.034;5.554;2022-07-06T14:25:33;1.70;;;0.60;;
19026;SDS011;9646;52.034;5.554;2022-07-06T14:28:01;2.30;;;0.80;;
19026;SDS011;9646;52.034;5.554;2022-07-06T14:30:28;2.85;;;0.98;;
19026;SDS011;9646;52.034;5.554;2022-07-06T14:32:55;5.28;;;1.20;;
19026;SDS011;9646;52.034;5.554;2022-07-06T14:35:24;2.38;;;0.98;;
19026;SDS011;9646;52.034;5.554;2022-07-06T14:37:51;3.38;;;1.00;;
19026;SDS011;9646;52.034;5.554;2022-07-06T14:40:18;6.10;;;1.23;;
19026;SDS011;9646;52.034;5.554;2022-07-06T14:42:45;2.83;;;1.13;;
19026;SDS011;9646;52.034;5.554;2022-07-06T14:45:12;2.05;;;0.95;;
19026;SDS011;9646;52.034;5.554;2022-07-06T14:47:39;4.80;;;1.20;;
19026;SDS011;9646;52.034;5.554;2022-07-06T14:50:06;2.78;;;0.80;;
19026;SDS011;9646;52.034;5.554;2022-07-06T14:52:35;3.60;;;1.10;;
19026;SDS011;9646;52.034;5.554;2022-07-06T14:55:02;2.80;;;1.20;;
19026;SDS011;9646;52.034;5.554;2022-07-06T14:57:29;5.82;;;1.48;;
19026;SDS011;9646;52.034;5.554;2022-07-06T14:59:56;3.08;;;1.45;;
19026;SDS011;9646;52.034;5.554;2022-07-06T15:02:23;2.47;;;1.00;;
19026;SDS011;9646;52.034;5.554;2022-07-06T15:04:50;2.95;;;1.00;;
19026;SDS011;9646;52.034;5.554;2022-07-06T15:07:17;3.83;;;1.45;;